createdAt,value
2017-12-12T00:02:18.924Z,3.78
2017-12-12T00:04:45.252Z,3.75
2017-12-12T00:07:11.578Z,3.76
2017-12-12T00:09:37.958Z,3.72
2017-12-12T00:12:04.284Z,3.62
2017-12-12T00:14:30.674Z,3.55
2017-12-12T00:16:57.036Z,3.46
2017-12-12T00:19:23.371Z,3.47
2017-12-12T00:21:49.696Z,3.42
2017-12-12T00:24:16.079Z,3.31
2017-12-12T00:26:42.408Z,3.36
2017-12-12T00:29:08.719Z,3.48
2017-12-12T00:31:35.091Z,3.51
2017-12-12T00:34:01.534Z,3.50
2017-12-12T00:36:27.881Z,3.43
2017-12-12T00:38:54.272Z,3.42
2017-12-12T00:41:20.605Z,3.45
2017-12-12T00:43:47.056Z,3.46
2017-12-12T00:46:13.428Z,3.44
2017-12-12T00:48:39.756Z,3.37
2017-12-12T00:51:06.079Z,3.33
2017-12-12T00:53:32.439Z,3.32
2017-12-12T00:55:58.783Z,3.24
2017-12-12T00:58:25.131Z,3.19
2017-12-12T01:00:51.500Z,3.16
2017-12-12T01:03:17.845Z,3.23
2017-12-12T01:05:44.165Z,3.22
2017-12-12T01:08:10.588Z,3.22
2017-12-12T01:10:36.929Z,3.19
2017-12-12T01:13:03.303Z,3.16
2017-12-12T01:15:29.668Z,3.19
2017-12-12T01:17:56.032Z,3.25
2017-12-12T01:20:22.426Z,3.28
2017-12-12T01:22:48.808Z,3.25
2017-12-12T01:25:15.128Z,3.19
2017-12-12T01:27:41.452Z,3.11
2017-12-12T01:30:07.815Z,3.10
2017-12-12T01:32:34.367Z,3.12
2017-12-12T01:35:00.688Z,3.06
2017-12-12T01:37:27.152Z,3.02
2017-12-12T01:39:53.511Z,3.02
2017-12-12T01:42:19.932Z,2.93
2017-12-12T01:44:46.460Z,2.90
2017-12-12T01:47:12.987Z,2.84
2017-12-12T01:49:39.381Z,2.86
2017-12-12T01:52:05.830Z,2.96
2017-12-12T01:54:32.332Z,3.03
2017-12-12T01:56:58.736Z,2.94
2017-12-12T01:59:25.191Z,2.89
2017-12-12T02:01:51.573Z,2.83
2017-12-12T02:04:18.060Z,2.79
2017-12-12T02:06:44.543Z,2.80
2017-12-12T02:09:10.967Z,2.87
2017-12-12T02:11:37.423Z,2.87
2017-12-12T02:14:03.888Z,2.94
2017-12-12T02:16:30.288Z,3.03
2017-12-12T02:18:56.672Z,2.99
2017-12-12T02:21:23.115Z,2.96
2017-12-12T02:23:49.519Z,2.87
2017-12-12T02:26:15.948Z,2.78
2017-12-12T02:28:42.415Z,2.67
2017-12-12T02:31:08.870Z,2.81
2017-12-12T02:33:35.296Z,2.86
2017-12-12T02:36:01.858Z,2.92
2017-12-12T02:38:28.272Z,2.91
2017-12-12T02:40:54.827Z,2.90
2017-12-12T02:43:21.283Z,2.86
2017-12-12T02:45:47.700Z,2.83
2017-12-12T02:48:14.120Z,2.87
2017-12-12T02:50:40.663Z,2.81
2017-12-12T02:53:07.097Z,2.70
2017-12-12T02:55:33.527Z,2.72
2017-12-12T02:58:00.013Z,2.72
2017-12-12T03:00:26.443Z,2.73
2017-12-12T03:02:52.863Z,2.70
2017-12-12T03:05:19.343Z,2.72
2017-12-12T03:07:45.773Z,2.79
2017-12-12T03:10:12.180Z,2.76
2017-12-12T03:12:38.648Z,2.73
2017-12-12T03:15:05.076Z,2.76
2017-12-12T03:17:31.632Z,2.75
2017-12-12T03:19:58.080Z,2.79
2017-12-12T03:22:24.505Z,2.78
2017-12-12T03:24:50.910Z,2.74
2017-12-12T03:27:17.392Z,2.71
2017-12-12T03:29:43.798Z,2.78
2017-12-12T03:32:10.210Z,2.76
2017-12-12T03:34:36.672Z,2.72
2017-12-12T03:37:03.073Z,2.69
2017-12-12T03:39:29.532Z,2.62
2017-12-12T03:41:56.001Z,2.60
2017-12-12T03:44:22.419Z,2.65
2017-12-12T03:46:48.806Z,2.48
2017-12-12T03:49:15.248Z,2.40
2017-12-12T03:51:41.663Z,2.31
2017-12-12T03:54:08.065Z,2.31
2017-12-12T03:56:34.536Z,2.22
2017-12-12T03:59:00.928Z,2.11
2017-12-12T04:01:27.343Z,2.07
2017-12-12T04:03:53.775Z,2.14
2017-12-12T04:06:20.174Z,2.22
2017-12-12T04:08:46.627Z,2.22
2017-12-12T04:11:13.072Z,2.25
2017-12-12T04:13:39.467Z,2.24
2017-12-12T04:16:05.872Z,2.20
2017-12-12T04:18:32.320Z,2.30
2017-12-12T04:20:58.720Z,2.21
2017-12-12T04:23:25.144Z,2.23
2017-12-12T04:25:51.595Z,2.19
2017-12-12T04:28:18.016Z,2.18
2017-12-12T04:30:44.656Z,2.22
2017-12-12T04:33:11.131Z,2.25
2017-12-12T04:35:37.548Z,2.25
2017-12-12T04:38:03.943Z,2.24
2017-12-12T04:40:30.388Z,2.31
2017-12-12T04:42:56.767Z,2.35
2017-12-12T04:45:23.158Z,2.32
2017-12-12T04:47:49.636Z,2.27
2017-12-12T04:50:16.019Z,2.32
2017-12-12T04:52:42.427Z,2.38
2017-12-12T04:55:08.876Z,2.42
2017-12-12T04:57:35.264Z,2.34
2017-12-12T05:00:01.677Z,2.36
2017-12-12T05:02:28.157Z,2.40
2017-12-12T05:04:54.568Z,2.46
2017-12-12T05:07:20.960Z,2.41
2017-12-12T05:09:47.417Z,2.41
2017-12-12T05:12:13.816Z,2.30
2017-12-12T05:14:40.325Z,2.19
2017-12-12T05:17:06.795Z,2.09
2017-12-12T05:19:33.295Z,2.06
2017-12-12T05:21:59.704Z,2.06
2017-12-12T05:24:26.104Z,2.08
2017-12-12T05:26:52.524Z,2.12
2017-12-12T05:29:18.960Z,2.10
2017-12-12T05:31:45.437Z,1.93
2017-12-12T05:34:11.893Z,1.94
2017-12-12T05:36:38.307Z,2.06
2017-12-12T05:39:04.797Z,2.03
2017-12-12T05:41:31.268Z,2.02
2017-12-12T05:43:57.734Z,1.97
2017-12-12T05:46:24.698Z,1.92
2017-12-12T05:48:51.092Z,1.89
2017-12-12T05:51:17.520Z,1.92
2017-12-12T05:53:43.997Z,1.86
2017-12-12T05:56:10.383Z,1.75
2017-12-12T05:58:36.843Z,1.81
2017-12-12T06:01:03.458Z,1.91
2017-12-12T06:03:30.080Z,1.93
2017-12-12T06:05:56.546Z,1.86
2017-12-12T06:08:23.018Z,1.85
2017-12-12T06:10:49.439Z,1.77
2017-12-12T06:13:15.847Z,1.85
2017-12-12T06:15:42.262Z,1.92
2017-12-12T06:18:08.694Z,1.90
2017-12-12T06:20:35.148Z,2.01
2017-12-12T06:23:01.616Z,2.11
2017-12-12T06:25:28.142Z,2.16
2017-12-12T06:27:55.035Z,2.26
2017-12-12T06:30:21.631Z,2.28
2017-12-12T06:32:48.057Z,2.29
2017-12-12T06:35:14.470Z,2.34
2017-12-12T06:37:40.920Z,2.30
2017-12-12T06:40:07.641Z,2.40
2017-12-12T06:42:34.074Z,2.53
2017-12-12T06:45:00.520Z,2.56
2017-12-12T06:47:27.043Z,2.63
2017-12-12T06:49:53.691Z,2.57
2017-12-12T06:52:20.249Z,2.57
2017-12-12T06:54:46.647Z,2.68
2017-12-12T06:57:13.056Z,2.81
2017-12-12T06:59:39.513Z,2.87
2017-12-12T07:02:05.921Z,2.93
2017-12-12T07:04:32.408Z,2.98
2017-12-12T07:06:58.972Z,3.07
2017-12-12T07:09:25.451Z,3.11
2017-12-12T07:11:51.936Z,3.12
2017-12-12T07:14:18.381Z,3.17
2017-12-12T07:16:44.840Z,3.21
2017-12-12T07:19:11.288Z,3.27
2017-12-12T07:21:37.752Z,3.36
2017-12-12T07:24:04.140Z,3.41
2017-12-12T07:26:30.572Z,3.48
2017-12-12T07:28:56.972Z,3.55
2017-12-12T07:31:23.332Z,3.61
2017-12-12T07:33:49.887Z,3.66
2017-12-12T07:36:16.308Z,3.77
2017-12-12T07:38:42.736Z,3.91
2017-12-12T07:41:09.101Z,4.08
2017-12-12T07:43:35.512Z,4.20
2017-12-12T07:46:01.950Z,4.36
2017-12-12T07:48:28.360Z,4.47
2017-12-12T07:50:54.768Z,4.60
2017-12-12T07:53:21.184Z,4.72
2017-12-12T07:55:47.587Z,4.82
2017-12-12T07:58:14.001Z,4.88
2017-12-12T08:00:40.395Z,5.04
2017-12-12T08:03:06.794Z,5.26
2017-12-12T08:05:33.246Z,5.56
2017-12-12T08:07:59.680Z,5.77
2017-12-12T08:10:26.108Z,5.83
2017-12-12T08:12:52.623Z,5.93
2017-12-12T08:15:18.985Z,5.97
2017-12-12T08:17:45.479Z,6.02
2017-12-12T08:20:11.912Z,6.09
2017-12-12T08:22:38.327Z,6.23
2017-12-12T08:25:04.706Z,6.28
2017-12-12T08:27:31.142Z,6.34
2017-12-12T08:29:57.524Z,6.43
2017-12-12T08:32:23.895Z,6.47
2017-12-12T08:34:50.646Z,6.49
2017-12-12T08:37:17.151Z,6.53
2017-12-12T08:39:43.508Z,6.63
2017-12-12T08:42:09.892Z,6.73
2017-12-12T08:44:36.348Z,6.89
2017-12-12T08:47:02.728Z,6.85
2017-12-12T08:49:29.149Z,6.89
2017-12-12T08:51:55.523Z,7.00
2017-12-12T08:54:21.876Z,6.95
2017-12-12T08:56:48.514Z,7.00
2017-12-12T08:59:14.932Z,7.03
2017-12-12T09:01:41.381Z,7.15
2017-12-12T09:04:07.796Z,7.22
2017-12-12T09:06:34.163Z,7.27
2017-12-12T09:09:00.508Z,7.26
2017-12-12T09:11:26.944Z,7.38
2017-12-12T09:13:53.291Z,7.54
2017-12-12T09:16:19.703Z,7.52
2017-12-12T09:18:46.928Z,7.63
2017-12-12T09:21:13.326Z,7.68
2017-12-12T09:23:39.689Z,7.58
2017-12-12T09:26:06.080Z,7.72
2017-12-12T09:28:32.485Z,7.80
2017-12-12T09:30:58.849Z,7.89
2017-12-12T09:33:25.321Z,7.97
2017-12-12T09:35:51.641Z,8.12
2017-12-12T09:38:18.084Z,8.10
2017-12-12T09:40:44.512Z,8.13
2017-12-12T09:43:10.864Z,8.22
2017-12-12T09:45:37.212Z,8.21
2017-12-12T09:48:03.644Z,8.32
2017-12-12T09:50:30.004Z,8.44
2017-12-12T09:52:56.375Z,8.55
2017-12-12T09:55:22.948Z,8.54
2017-12-12T09:57:49.448Z,8.57
2017-12-12T10:00:15.827Z,8.65
2017-12-12T10:02:42.272Z,8.72
2017-12-12T10:05:08.754Z,8.76
2017-12-12T10:07:35.140Z,8.84
2017-12-12T10:10:01.665Z,8.70
2017-12-12T10:12:28.032Z,8.83
2017-12-12T10:14:54.378Z,8.87
2017-12-12T10:17:20.791Z,8.80
2017-12-12T10:19:47.124Z,8.73
2017-12-12T10:22:13.466Z,8.96
2017-12-12T10:24:39.834Z,9.25
2017-12-12T10:27:06.196Z,9.32
2017-12-12T10:29:32.548Z,9.31
2017-12-12T10:31:58.932Z,9.24
2017-12-12T10:34:25.303Z,9.28
2017-12-12T10:36:51.712Z,9.30
2017-12-12T10:39:18.181Z,9.46
2017-12-12T10:41:44.606Z,9.42
2017-12-12T10:44:11.169Z,9.43
2017-12-12T10:46:37.652Z,9.57
2017-12-12T10:49:04.073Z,9.76
2017-12-12T10:51:30.516Z,9.85
2017-12-12T10:53:57.111Z,9.78
2017-12-12T10:56:23.520Z,9.85
2017-12-12T10:58:50.052Z,9.92
2017-12-12T11:01:16.522Z,9.96
2017-12-12T11:03:42.907Z,9.89
2017-12-12T11:06:09.374Z,9.72
2017-12-12T11:08:35.734Z,9.71
2017-12-12T11:11:02.077Z,9.73
2017-12-12T11:13:28.405Z,9.74
2017-12-12T11:15:55.084Z,9.91
2017-12-12T11:18:21.746Z,10.01
2017-12-12T11:20:48.088Z,10.06
2017-12-12T11:23:14.529Z,10.18
2017-12-12T11:25:41.045Z,10.17
2017-12-12T11:28:07.463Z,10.13
2017-12-12T11:30:34.116Z,10.05
2017-12-12T11:33:00.548Z,10.05
2017-12-12T11:35:26.982Z,9.88
2017-12-12T11:37:53.545Z,10.02
2017-12-12T11:40:20.053Z,10.08
2017-12-12T11:42:46.404Z,10.23
2017-12-12T11:45:12.842Z,10.36
2017-12-12T11:47:39.423Z,10.28
2017-12-12T11:50:06.298Z,10.00
2017-12-12T11:52:32.788Z,10.10
2017-12-12T11:54:59.182Z,10.28
2017-12-12T11:57:25.702Z,10.46
2017-12-12T11:59:52.213Z,10.32
2017-12-12T12:02:18.689Z,10.29
2017-12-12T12:04:45.140Z,10.37
2017-12-12T12:07:11.821Z,10.42
2017-12-12T12:09:38.292Z,10.43
2017-12-12T12:12:04.760Z,10.35
2017-12-12T12:14:31.239Z,10.37
2017-12-12T12:16:57.653Z,10.20
2017-12-12T12:19:24.080Z,10.26
2017-12-12T12:21:50.504Z,10.22
2017-12-12T12:24:16.978Z,10.33
2017-12-12T12:26:43.496Z,10.38
2017-12-12T12:29:09.918Z,10.40
2017-12-12T12:31:36.363Z,10.27
2017-12-12T12:34:02.799Z,10.02
2017-12-12T12:36:29.272Z,10.19
2017-12-12T12:38:55.937Z,10.14
2017-12-12T12:41:22.380Z,10.31
2017-12-12T12:43:48.828Z,10.46
2017-12-12T12:46:15.226Z,10.65
2017-12-12T12:48:41.747Z,10.65
2017-12-12T12:51:09.190Z,10.75
2017-12-12T12:53:35.581Z,10.75
2017-12-12T12:56:02.005Z,10.67
2017-12-12T12:58:28.477Z,10.69
2017-12-12T13:00:54.861Z,10.83
2017-12-12T13:03:21.265Z,10.91
2017-12-12T13:05:47.670Z,11.05
2017-12-12T13:08:14.208Z,11.02
2017-12-12T13:10:40.612Z,10.97
2017-12-12T13:13:07.020Z,10.95
2017-12-12T13:15:33.384Z,10.98
2017-12-12T13:17:59.724Z,10.94
2017-12-12T13:20:26.537Z,10.93
2017-12-12T13:22:52.941Z,10.89
2017-12-12T13:25:19.345Z,10.81
2017-12-12T13:27:45.882Z,10.72
2017-12-12T13:30:12.384Z,10.76
2017-12-12T13:32:39.054Z,10.79
2017-12-12T13:35:05.460Z,10.78
2017-12-12T13:37:31.836Z,10.71
2017-12-12T13:39:58.252Z,10.66
2017-12-12T13:42:24.684Z,10.55
2017-12-12T13:44:51.119Z,10.51
2017-12-12T13:47:17.757Z,10.51
2017-12-12T13:49:44.220Z,10.48
2017-12-12T13:52:10.600Z,10.34
2017-12-12T13:54:36.932Z,10.21
2017-12-12T13:57:03.313Z,10.07
2017-12-12T13:59:29.632Z,10.05
2017-12-12T14:01:56.107Z,10.09
2017-12-12T14:04:22.488Z,10.12
2017-12-12T14:06:48.842Z,10.18
2017-12-12T14:09:15.172Z,10.12
2017-12-12T14:11:41.537Z,9.98
2017-12-12T14:14:07.884Z,9.99
2017-12-12T14:16:34.261Z,9.93
2017-12-12T14:19:00.775Z,9.96
2017-12-12T14:21:27.099Z,9.96
2017-12-12T14:23:53.437Z,9.96
2017-12-12T14:26:19.870Z,9.94
2017-12-12T14:28:46.195Z,9.94
2017-12-12T14:31:12.516Z,9.95
2017-12-12T14:33:39.987Z,9.93
2017-12-12T14:36:06.423Z,9.84
2017-12-12T14:38:32.753Z,9.82
2017-12-12T14:40:59.140Z,9.78
2017-12-12T14:43:25.524Z,9.68
2017-12-12T14:45:51.872Z,9.63
2017-12-12T14:48:18.257Z,9.57
2017-12-12T14:50:44.597Z,9.58
2017-12-12T14:53:10.977Z,9.55
2017-12-12T14:55:37.363Z,9.53
2017-12-12T15:22:13.494Z,9.14
2017-12-12T15:24:39.823Z,9.07
2017-12-12T15:27:06.262Z,9.02
2017-12-12T15:29:32.679Z,8.95
2017-12-12T15:31:59.007Z,8.94
2017-12-12T15:34:26.274Z,8.94
2017-12-12T15:36:52.697Z,8.91
2017-12-12T15:39:20.230Z,8.89
2017-12-12T15:41:46.704Z,8.88
2017-12-12T15:44:13.124Z,8.87
2017-12-12T15:46:39.445Z,8.83
2017-12-12T15:49:05.771Z,8.82
2017-12-12T15:51:32.180Z,8.82
2017-12-12T15:53:58.588Z,8.76
2017-12-12T15:56:24.919Z,8.72
2017-12-12T15:58:51.297Z,8.71
2017-12-12T16:01:17.880Z,8.70
2017-12-12T16:03:44.220Z,8.70
2017-12-12T16:06:10.627Z,8.68
2017-12-12T16:08:37.551Z,8.67
2017-12-12T16:11:04.244Z,8.64
2017-12-12T16:13:30.814Z,8.65
2017-12-12T16:15:57.351Z,8.64
2017-12-12T16:18:23.780Z,8.61
2017-12-12T16:20:50.251Z,8.48
2017-12-12T16:23:16.805Z,8.45
2017-12-12T16:25:43.322Z,8.47
2017-12-12T16:28:09.683Z,8.47
2017-12-12T16:30:36.086Z,8.45
2017-12-12T16:33:02.476Z,8.39
2017-12-12T16:35:28.920Z,8.37
2017-12-12T16:37:55.364Z,8.33
2017-12-12T16:40:22.015Z,8.27
2017-12-12T16:42:49.246Z,8.24
2017-12-12T16:45:15.626Z,8.20
2017-12-12T16:47:42.112Z,8.17
2017-12-12T16:50:08.512Z,8.16
2017-12-12T16:52:34.891Z,8.13
2017-12-12T16:55:01.233Z,8.13
2017-12-12T16:57:27.616Z,8.06
2017-12-12T16:59:54.014Z,7.99
2017-12-12T17:02:20.559Z,7.98
2017-12-12T17:04:47.230Z,7.92
2017-12-12T17:07:13.578Z,7.85
2017-12-12T17:09:39.909Z,7.86
2017-12-12T17:12:06.332Z,7.83
2017-12-12T17:14:32.948Z,7.76
2017-12-12T17:16:59.651Z,7.74
2017-12-12T17:19:26.141Z,7.78
2017-12-12T17:21:52.545Z,7.84
2017-12-12T17:24:18.959Z,7.73
2017-12-12T17:26:46.574Z,7.73
2017-12-12T17:29:13.309Z,7.68
2017-12-12T17:31:39.697Z,7.59
2017-12-12T17:34:06.081Z,7.56
2017-12-12T17:36:32.428Z,7.52
2017-12-12T17:38:58.767Z,7.53
2017-12-12T17:41:25.159Z,7.54
2017-12-12T17:43:51.584Z,7.50
2017-12-12T17:46:17.940Z,7.43
2017-12-12T17:48:44.340Z,7.40
2017-12-12T17:51:10.664Z,7.44
2017-12-12T17:53:37.721Z,7.49
2017-12-12T17:56:04.188Z,7.53
2017-12-12T17:58:30.532Z,7.51
2017-12-12T18:00:56.917Z,7.45
2017-12-12T18:03:23.468Z,7.33
2017-12-12T18:05:49.879Z,7.28
2017-12-12T18:08:17.835Z,7.24
2017-12-12T18:10:44.587Z,7.18
2017-12-12T18:13:13.208Z,7.14
2017-12-12T18:15:40.337Z,7.09
2017-12-12T18:18:07.078Z,6.98
2017-12-12T18:20:34.121Z,6.94
2017-12-12T18:23:00.505Z,6.93
2017-12-12T18:25:27.871Z,6.93
2017-12-12T18:27:54.934Z,6.89
2017-12-12T18:30:26.784Z,6.89
2017-12-12T18:32:53.320Z,6.87
2017-12-12T18:35:19.687Z,6.86
2017-12-12T18:37:46.077Z,6.86
2017-12-12T18:40:12.640Z,6.70
2017-12-12T18:42:38.973Z,6.67
2017-12-12T18:45:05.340Z,6.68
2017-12-12T18:47:31.752Z,6.73
2017-12-12T18:49:58.088Z,6.72
2017-12-12T18:52:24.480Z,6.71
2017-12-12T18:54:50.852Z,6.69
2017-12-12T18:57:17.180Z,6.62
2017-12-12T18:59:43.543Z,6.59
2017-12-12T19:02:09.975Z,6.49
2017-12-12T19:04:36.412Z,6.46
2017-12-12T19:07:02.761Z,6.45
2017-12-12T19:09:29.144Z,6.42
2017-12-12T19:11:55.524Z,6.42
2017-12-12T19:14:21.877Z,6.48
2017-12-12T19:16:48.336Z,6.50
2017-12-12T19:19:14.756Z,6.58
2017-12-12T19:21:41.160Z,6.62
2017-12-12T19:24:07.619Z,6.58
2017-12-12T19:26:34.000Z,6.54
2017-12-12T19:29:00.496Z,6.45
2017-12-12T19:31:27.028Z,6.39
2017-12-12T19:33:53.598Z,6.37
2017-12-12T19:36:20.024Z,6.38
2017-12-12T19:38:46.476Z,6.41
2017-12-12T19:41:12.847Z,6.44
2017-12-12T19:43:39.216Z,6.42
2017-12-12T19:46:05.642Z,6.36
2017-12-12T19:48:32.029Z,6.27
2017-12-12T19:50:58.436Z,6.26
2017-12-12T19:53:24.900Z,6.29
2017-12-12T19:55:51.313Z,6.32
2017-12-12T19:58:17.684Z,6.33
2017-12-12T20:00:44.132Z,6.31
2017-12-12T20:03:11.282Z,6.29
2017-12-12T20:05:37.884Z,6.24
2017-12-12T20:08:04.626Z,6.20
2017-12-12T20:10:31.224Z,6.20
2017-12-12T20:12:57.607Z,6.20
2017-12-12T20:15:24.127Z,6.12
2017-12-12T20:17:50.577Z,6.09
2017-12-12T20:20:16.988Z,6.02
2017-12-12T20:22:43.388Z,5.97
2017-12-12T20:25:09.757Z,5.96
2017-12-12T20:27:36.217Z,5.98
2017-12-12T20:30:02.660Z,5.99
2017-12-12T20:32:29.039Z,6.02
2017-12-12T20:34:55.359Z,5.99
2017-12-12T20:37:21.740Z,5.84
2017-12-12T20:39:48.276Z,5.84
2017-12-12T20:42:14.611Z,5.80
2017-12-12T20:44:41.044Z,5.74
2017-12-12T20:47:07.372Z,5.76
2017-12-12T20:49:33.916Z,5.75
2017-12-12T20:52:00.321Z,5.70
2017-12-12T20:54:26.648Z,5.69
2017-12-12T20:56:53.163Z,5.65
2017-12-12T20:59:19.587Z,5.62
2017-12-12T21:01:45.927Z,5.58
2017-12-12T21:04:12.267Z,5.58
2017-12-12T21:06:38.644Z,5.61
2017-12-12T21:09:05.104Z,5.63
2017-12-12T21:11:31.528Z,5.65
2017-12-12T21:13:58.001Z,5.56
2017-12-12T21:16:24.373Z,5.54
2017-12-12T21:18:50.756Z,5.54
2017-12-12T21:21:17.153Z,5.58
2017-12-12T21:23:43.496Z,5.59
2017-12-12T21:26:09.891Z,5.52
2017-12-12T21:28:36.280Z,5.50
2017-12-12T21:31:02.623Z,5.51
2017-12-12T21:33:29.187Z,5.48
2017-12-12T21:35:55.631Z,5.47
2017-12-12T21:38:21.967Z,5.51
2017-12-12T21:40:48.369Z,5.53
2017-12-12T21:43:14.784Z,5.40
2017-12-12T21:45:41.242Z,5.35
2017-12-12T21:48:07.669Z,5.30
2017-12-12T21:50:34.480Z,5.38
2017-12-12T21:53:00.828Z,5.35
2017-12-12T21:55:27.173Z,5.39
2017-12-12T21:57:53.547Z,5.41
2017-12-12T22:00:19.909Z,5.36
2017-12-12T22:02:46.340Z,5.27
2017-12-12T22:05:12.733Z,5.24
2017-12-12T22:07:39.088Z,5.22
2017-12-12T22:10:05.569Z,5.19
2017-12-12T22:12:31.975Z,5.16
2017-12-12T22:14:58.435Z,5.19
2017-12-12T22:17:25.332Z,5.24
2017-12-12T22:19:51.728Z,5.24
2017-12-12T22:22:18.064Z,5.25
2017-12-12T22:24:44.412Z,5.15
2017-12-12T22:27:10.816Z,5.15
2017-12-12T22:29:37.152Z,5.19
2017-12-12T22:32:03.537Z,5.20
2017-12-12T22:34:29.914Z,5.24
2017-12-12T22:36:56.220Z,5.28
2017-12-12T22:39:22.536Z,5.36
2017-12-12T22:41:48.911Z,5.44
2017-12-12T22:44:15.243Z,5.43
2017-12-12T22:46:41.620Z,5.36
2017-12-12T22:49:08.109Z,5.35
2017-12-12T22:51:34.444Z,5.34
2017-12-12T22:54:00.771Z,5.30
2017-12-12T22:56:27.188Z,5.27
2017-12-12T22:58:53.504Z,5.26
2017-12-12T23:01:19.881Z,5.18
2017-12-12T23:03:46.383Z,5.16
2017-12-12T23:06:12.692Z,5.14
2017-12-12T23:08:39.003Z,5.17
2017-12-12T23:11:05.580Z,5.23
2017-12-12T23:13:31.896Z,5.29
2017-12-12T23:15:58.566Z,5.33
2017-12-12T23:18:24.981Z,5.30
2017-12-12T23:20:51.292Z,5.23
2017-12-12T23:23:17.679Z,5.17
2017-12-12T23:25:44.075Z,5.13
2017-12-12T23:28:10.511Z,5.16
2017-12-12T23:30:36.916Z,5.16
2017-12-12T23:33:03.364Z,5.08
2017-12-12T23:35:29.708Z,5.07
2017-12-12T23:37:56.048Z,5.02
2017-12-12T23:40:22.408Z,4.82
2017-12-12T23:42:48.736Z,4.81
2017-12-12T23:45:15.967Z,4.89
2017-12-12T23:47:42.351Z,4.79
2017-12-12T23:50:08.684Z,4.85
2017-12-12T23:52:35.008Z,4.80
2017-12-12T23:55:01.526Z,4.78
2017-12-12T23:57:27.850Z,4.81
2017-12-12T23:59:54.245Z,4.92
